To NAV CANADA Home Page Login to a new session Search on AWWS site Feedback and Comments Disclaimer Vers la page française équivalente Tips FAQ What's new on the site To the Forecasts and Observations / NOTAM section To "File a Flight Plan" website Publications and other links Update of the User's profile FIC Telephone Numbers My Weather Data Folder Route Weather Data Regional Weather Data Local Weather Data To the Forecasts and Observations / NOTAM section
Request Generated 05/06/2016 at 13:03:28 UTC . Weather information available at that time is displayed.

METAR/TAF

SLAVE LAKE/AB    (show WxCam)

METAR CYZH 061300Z AUTO 00000KT 9SM FEW085 02/M03 A3021 RMK SLP247=
METAR CYZH 061200Z AUTO 00000KT 9SM BKN085 02/M04 A3019 RMK SLP242=
METAR CYZH 061100Z AUTO 24004KT 9SM OVC090 02/M04 A3018 RMK SLP238=

TAF CYZH 061238Z 0613/0701 VRB03KT P6SM SCT080 TEMPO 0613/0619 5SM FU
SCT040 BKN080
BECMG 0616/0618 31007KT
RMK FCST BASED ON AUTO OBS. NXT FCST BY 061900Z=
Your time UTC time
Weather data provided by Environment Canada and NAV CANADA